createdAt,value
2023-04-03T00:00:06.446Z,0.40
2023-04-03T00:02:33.797Z,0.80
2023-04-03T00:05:00.656Z,0.40
2023-04-03T00:07:27.320Z,0.70
2023-04-03T00:09:53.859Z,0.68
2023-04-03T00:12:20.487Z,0.60
2023-04-03T00:14:47.057Z,0.50
2023-04-03T00:17:13.673Z,0.70
2023-04-03T00:19:40.282Z,0.43
2023-04-03T00:22:06.885Z,0.50
2023-04-03T00:24:33.503Z,0.30
2023-04-03T00:27:00.195Z,0.50
2023-04-03T00:29:26.770Z,0.43
2023-04-03T00:31:53.263Z,0.60
2023-04-03T00:34:20.673Z,0.60
2023-04-03T00:36:47.339Z,0.45
2023-04-03T00:39:13.910Z,0.32
2023-04-03T00:41:41.270Z,0.40
2023-04-03T00:44:46.949Z,0.50
2023-04-03T00:47:16.276Z,1.02
2023-04-03T00:49:44.063Z,0.52
2023-04-03T00:52:16.141Z,0.50
2023-04-03T00:54:44.699Z,0.50
2023-04-03T00:57:12.602Z,0.50
2023-04-03T00:59:45.049Z,0.80
2023-04-03T01:02:11.546Z,0.57
2023-04-03T01:04:40.863Z,0.65
2023-04-03T01:07:11.803Z,0.65
2023-04-03T01:09:39.531Z,0.50
2023-04-03T01:12:21.365Z,0.50
2023-04-03T01:14:51.190Z,0.30
2023-04-03T01:17:37.511Z,0.40
2023-04-03T01:20:13.217Z,0.45
2023-04-03T01:23:07.449Z,0.40
2023-04-03T01:25:34.767Z,0.47
2023-04-03T01:28:01.790Z,0.52
2023-04-03T01:30:35.685Z,0.50
2023-04-03T01:33:02.906Z,0.50
2023-04-03T01:35:29.562Z,0.50
2023-04-03T01:37:56.083Z,0.50
2023-04-03T01:40:22.655Z,0.50
2023-04-03T01:42:49.247Z,0.47
2023-04-03T01:45:16.139Z,0.50
2023-04-03T01:47:42.770Z,0.60
2023-04-03T01:50:09.968Z,0.50
2023-04-03T01:52:36.665Z,0.47
2023-04-03T01:55:03.317Z,0.50
2023-04-03T01:57:29.963Z,0.50
2023-04-03T01:59:56.622Z,0.53
2023-04-03T02:02:23.157Z,0.55
2023-04-03T02:04:49.688Z,0.60
2023-04-03T02:07:16.367Z,0.55
2023-04-03T02:09:42.918Z,0.43
2023-04-03T02:12:09.466Z,0.50
2023-04-03T02:14:36.145Z,0.70
2023-04-03T02:17:09.437Z,0.50
2023-04-03T02:19:36.716Z,0.68
2023-04-03T02:22:05.297Z,0.50
2023-04-03T02:24:33.394Z,0.90
2023-04-03T02:27:00.812Z,0.60
2023-04-03T02:29:27.346Z,0.55
2023-04-03T02:31:53.921Z,0.70
2023-04-03T02:34:20.505Z,0.40
2023-04-03T02:36:47.070Z,0.50
2023-04-03T02:39:13.697Z,0.47
2023-04-03T02:41:40.386Z,0.52
2023-04-03T02:44:07.981Z,0.50
2023-04-03T02:46:34.867Z,0.50
2023-04-03T02:49:01.707Z,0.40
2023-04-03T02:51:28.323Z,0.50
2023-04-03T02:53:54.898Z,0.60
2023-04-03T02:56:22.154Z,0.30
2023-04-03T02:58:49.211Z,0.40
2023-04-03T03:01:16.078Z,0.30
2023-04-03T03:03:42.616Z,0.38
2023-04-03T03:06:12.106Z,0.35
2023-04-03T03:08:39.333Z,0.40
2023-04-03T03:11:06.257Z,0.40
2023-04-03T03:13:33.686Z,0.47
2023-04-03T03:16:01.106Z,0.40
2023-04-03T03:18:27.876Z,0.75
2023-04-03T03:20:56.063Z,0.32
2023-04-03T03:23:24.360Z,0.30
2023-04-03T03:26:03.124Z,0.40
2023-04-03T03:28:30.265Z,0.50
2023-04-03T03:30:57.791Z,0.90
2023-04-03T03:33:25.009Z,0.30
2023-04-03T03:35:52.756Z,0.40
2023-04-03T03:38:19.382Z,0.60
2023-04-03T03:40:46.190Z,1.02
2023-04-03T03:43:12.716Z,0.50
2023-04-03T03:45:39.498Z,0.40
2023-04-03T03:48:06.493Z,0.60
2023-04-03T03:50:33.418Z,0.57
2023-04-03T03:52:59.943Z,0.70
2023-04-03T03:55:26.907Z,0.70
2023-04-03T03:57:53.548Z,0.30
2023-04-03T04:00:20.522Z,0.57
2023-04-03T04:02:47.610Z,0.50
2023-04-03T04:05:14.189Z,0.50
2023-04-03T04:07:41.629Z,0.30
2023-04-03T04:10:08.816Z,0.40
2023-04-03T04:12:36.525Z,0.70
2023-04-03T04:15:04.330Z,0.50
2023-04-03T04:17:30.776Z,0.30
2023-04-03T04:19:57.397Z,0.50
2023-04-03T04:22:23.929Z,0.47
2023-04-03T04:24:50.559Z,0.40
2023-04-03T04:27:17.909Z,0.43
2023-04-03T04:29:44.552Z,0.60
2023-04-03T04:32:11.141Z,0.75
2023-04-03T04:34:37.782Z,1.42
2023-04-03T04:37:04.440Z,2.35
2023-04-03T04:39:31.095Z,3.13
2023-04-03T04:41:57.725Z,3.78
2023-04-03T04:44:24.336Z,3.72
2023-04-03T04:46:50.856Z,4.07
2023-04-03T04:49:17.376Z,2.70
2023-04-03T04:51:51.589Z,3.30
2023-04-03T04:54:18.965Z,4.32
2023-04-03T04:56:45.843Z,3.67
2023-04-03T04:59:12.381Z,3.55
2023-04-03T05:01:39.231Z,2.97
2023-04-03T05:04:06.281Z,2.00
2023-04-03T05:06:33.766Z,2.08
2023-04-03T05:09:01.074Z,2.45
2023-04-03T05:11:27.851Z,2.75
2023-04-03T05:13:54.429Z,2.53
2023-04-03T05:16:21.044Z,1.93
2023-04-03T05:18:47.696Z,1.40
2023-04-03T05:21:14.524Z,1.20
2023-04-03T05:23:41.117Z,0.82
2023-04-03T05:26:08.124Z,1.15
2023-04-03T05:28:34.670Z,1.10
2023-04-03T05:31:01.227Z,0.70
2023-04-03T05:33:28.232Z,0.40
2023-04-03T05:35:55.644Z,0.47
2023-04-03T05:38:22.636Z,0.45
2023-04-03T05:40:49.434Z,0.50
2023-04-03T05:43:16.026Z,0.35
2023-04-03T05:45:45.444Z,0.50
2023-04-03T05:48:13.730Z,0.50
2023-04-03T05:50:42.462Z,0.40
2023-04-03T05:53:18.798Z,0.50
2023-04-03T05:55:45.420Z,0.40
2023-04-03T05:58:12.122Z,0.60
2023-04-03T06:00:38.722Z,0.32
2023-04-03T06:03:06.243Z,0.40
2023-04-03T06:05:33.766Z,0.60
2023-04-03T06:08:00.285Z,0.40
2023-04-03T06:10:27.163Z,0.73
2023-04-03T06:12:53.732Z,0.50
2023-04-03T06:15:21.221Z,0.30
2023-04-03T06:17:47.913Z,0.43
2023-04-03T06:20:14.565Z,0.50
2023-04-03T06:22:42.730Z,0.50
2023-04-03T06:25:10.482Z,0.50
2023-04-03T06:27:37.459Z,0.60
2023-04-03T06:30:04.356Z,0.80
2023-04-03T06:32:30.899Z,0.80
2023-04-03T06:34:58.383Z,0.63
2023-04-03T06:37:29.808Z,0.50
2023-04-03T06:39:56.561Z,0.70
2023-04-03T06:42:23.962Z,0.75
2023-04-03T06:44:51.687Z,0.70
2023-04-03T06:47:18.580Z,0.50
2023-04-03T06:49:45.738Z,0.43
2023-04-03T06:52:13.056Z,0.60
2023-04-03T06:54:40.860Z,0.60
2023-04-03T06:57:08.056Z,0.50
2023-04-03T06:59:35.946Z,0.60
2023-04-03T07:02:02.557Z,0.50
2023-04-03T07:04:29.482Z,0.70
2023-04-03T07:06:55.956Z,0.47
2023-04-03T07:09:22.631Z,0.85
2023-04-03T07:11:49.268Z,0.70
2023-04-03T07:14:15.814Z,0.80
2023-04-03T07:16:42.959Z,0.85
2023-04-03T07:19:09.979Z,0.80
2023-04-03T07:21:36.718Z,0.38
2023-04-03T07:24:03.465Z,0.60
2023-04-03T07:26:29.998Z,0.70
2023-04-03T07:28:56.460Z,0.50
2023-04-03T07:31:23.932Z,0.80
2023-04-03T07:33:50.900Z,0.70
2023-04-03T07:36:20.392Z,0.90
2023-04-03T07:38:47.004Z,0.68
2023-04-03T07:41:16.419Z,0.60
2023-04-03T07:43:43.245Z,0.60
2023-04-03T07:46:10.230Z,0.50
2023-04-03T07:48:37.173Z,0.50
2023-04-03T07:51:04.888Z,0.50
2023-04-03T07:53:32.666Z,0.40
2023-04-03T07:56:00.219Z,0.50
2023-04-03T07:58:26.973Z,0.82
2023-04-03T08:00:53.664Z,0.52
2023-04-03T08:03:20.295Z,0.57
2023-04-03T08:05:48.880Z,0.30
2023-04-03T08:08:20.856Z,0.57
2023-04-03T08:10:53.208Z,0.50
2023-04-03T08:13:20.615Z,0.50
2023-04-03T08:15:48.047Z,0.40
2023-04-03T08:18:16.141Z,0.47
2023-04-03T08:20:44.488Z,0.40
2023-04-03T08:23:12.115Z,0.22
2023-04-03T08:25:39.725Z,0.30
2023-04-03T08:28:06.517Z,0.30
2023-04-03T08:30:33.486Z,0.30
2023-04-03T08:33:02.567Z,0.40
2023-04-03T08:35:29.436Z,0.30
2023-04-03T08:37:56.033Z,0.40
2023-04-03T08:40:22.561Z,0.30
2023-04-03T08:43:01.278Z,0.30
2023-04-03T08:45:43.172Z,0.30
2023-04-03T08:48:35.983Z,0.52
2023-04-03T08:51:12.912Z,0.40
2023-04-03T08:53:43.808Z,1.90
2023-04-03T08:56:11.051Z,0.40
2023-04-03T08:58:52.533Z,0.80
2023-04-03T09:01:30.842Z,1.05
2023-04-03T09:03:57.552Z,0.65
2023-04-03T09:06:31.474Z,0.60
2023-04-03T09:09:17.845Z,0.35
2023-04-03T09:11:58.489Z,0.50
2023-04-03T09:14:40.275Z,0.50
2023-04-03T09:17:21.926Z,0.30
2023-04-03T09:20:12.069Z,0.40
2023-04-03T09:22:49.607Z,0.30
2023-04-03T09:25:22.395Z,0.40
2023-04-03T09:27:50.570Z,0.30
2023-04-03T09:30:20.715Z,0.40
2023-04-03T09:32:49.195Z,0.40
2023-04-03T09:35:29.858Z,0.40
2023-04-03T09:38:12.891Z,0.32
2023-04-03T09:40:46.742Z,0.40
2023-04-03T09:43:27.463Z,0.40
2023-04-03T09:45:54.946Z,0.30
2023-04-03T09:48:27.509Z,0.20
2023-04-03T09:51:01.294Z,0.40
2023-04-03T09:53:42.037Z,0.40
2023-04-03T09:56:22.641Z,0.30
2023-04-03T09:58:52.166Z,0.30
2023-04-03T10:01:42.432Z,0.30
2023-04-03T10:04:10.752Z,0.50
2023-04-03T10:06:47.552Z,0.50
2023-04-03T10:09:29.843Z,0.32
2023-04-03T10:12:08.056Z,0.40
2023-04-03T10:14:59.353Z,0.38
2023-04-03T10:17:29.049Z,0.50
2023-04-03T10:20:24.330Z,0.40
2023-04-03T10:23:12.853Z,0.40
2023-04-03T10:26:13.983Z,0.80
2023-04-03T10:28:41.211Z,0.40
2023-04-03T10:31:13.812Z,0.47
2023-04-03T10:33:54.162Z,0.30
2023-04-03T10:36:38.209Z,0.32
2023-04-03T10:39:24.565Z,0.40
2023-04-03T10:42:16.685Z,0.40
2023-04-03T10:44:58.491Z,0.43
2023-04-03T10:47:49.904Z,0.50
2023-04-03T10:50:25.790Z,0.40
2023-04-03T10:52:52.307Z,0.47
2023-04-03T10:55:28.964Z,0.60
2023-04-03T10:57:58.598Z,0.40
2023-04-03T11:00:36.416Z,0.50
2023-04-03T11:03:11.924Z,0.45
2023-04-03T11:05:45.672Z,0.25
2023-04-03T11:08:56.111Z,0.40
2023-04-03T11:11:28.215Z,0.47
2023-04-03T11:14:05.471Z,0.60
2023-04-03T11:16:50.996Z,0.30
2023-04-03T11:19:25.153Z,0.40
2023-04-03T11:22:03.302Z,0.38
2023-04-03T11:24:33.528Z,0.40
2023-04-03T11:27:02.152Z,0.40
2023-04-03T11:29:40.540Z,0.30
2023-04-03T11:32:30.563Z,0.30
2023-04-03T11:35:00.164Z,0.40
2023-04-03T11:37:39.091Z,0.35
2023-04-03T11:40:10.021Z,0.30
2023-04-03T11:42:47.843Z,0.30
2023-04-03T11:45:27.520Z,0.47
2023-04-03T11:48:24.604Z,0.40
2023-04-03T11:50:52.809Z,0.25
2023-04-03T11:53:40.552Z,0.30
2023-04-03T11:56:36.462Z,0.40
2023-04-03T11:59:05.969Z,0.40
2023-04-03T12:01:54.120Z,0.65
2023-04-03T12:04:23.035Z,0.40
2023-04-03T12:07:11.647Z,0.50
2023-04-03T12:09:41.008Z,0.30
2023-04-03T12:12:54.208Z,0.38
2023-04-03T12:15:52.245Z,0.30
2023-04-03T12:18:43.076Z,0.60
2023-04-03T12:21:11.488Z,0.60
2023-04-03T12:23:56.818Z,0.32
2023-04-03T12:26:48.160Z,0.40
2023-04-03T12:29:33.935Z,0.50
2023-04-03T12:32:38.255Z,0.50
2023-04-03T12:35:22.577Z,0.30
2023-04-03T12:37:58.595Z,0.50
2023-04-03T12:40:40.425Z,0.50
2023-04-03T12:43:36.965Z,0.40
2023-04-03T12:46:09.977Z,0.40
2023-04-03T12:48:51.408Z,0.40
2023-04-03T12:51:36.017Z,0.40
2023-04-03T12:54:13.992Z,0.43
2023-04-03T12:56:40.926Z,0.30
2023-04-03T12:59:33.916Z,1.73
2023-04-03T13:02:02.516Z,0.57
2023-04-03T13:04:32.168Z,0.40
2023-04-03T13:06:59.341Z,0.50
2023-04-03T13:09:31.715Z,0.43
2023-04-03T13:12:19.179Z,0.30
2023-04-03T13:15:15.525Z,0.40
2023-04-03T13:17:43.624Z,0.40
2023-04-03T13:20:30.597Z,0.45
2023-04-03T13:23:13.945Z,0.50
2023-04-03T13:25:44.317Z,0.60
2023-04-03T13:28:16.249Z,0.30
2023-04-03T13:30:56.986Z,0.38
2023-04-03T13:33:27.669Z,0.28
2023-04-03T13:36:03.585Z,0.47
2023-04-03T13:38:34.953Z,0.28
2023-04-03T13:41:23.763Z,0.40
2023-04-03T13:43:52.011Z,0.43
2023-04-03T13:46:20.536Z,0.40
2023-04-03T13:48:53.222Z,0.43
2023-04-03T13:51:24.235Z,0.40
2023-04-03T13:53:58.379Z,0.50
2023-04-03T13:56:39.532Z,0.20
2023-04-03T13:59:17.156Z,0.30
2023-04-03T14:02:13.697Z,1.23
2023-04-03T14:04:43.202Z,0.93
2023-04-03T14:07:10.921Z,0.70
2023-04-03T14:09:37.746Z,0.45
2023-04-03T14:12:24.315Z,0.70
2023-04-03T14:14:57.358Z,0.43
2023-04-03T14:17:27.365Z,0.85
2023-04-03T14:19:56.464Z,0.40
2023-04-03T14:22:29.349Z,0.30
2023-04-03T14:24:57.082Z,0.80
2023-04-03T14:27:46.395Z,0.75
2023-04-03T14:30:22.655Z,0.57
2023-04-03T14:32:51.358Z,0.90
2023-04-03T14:35:19.685Z,0.70
2023-04-03T14:37:47.410Z,0.50
2023-04-03T14:40:16.676Z,0.50
2023-04-03T14:42:43.333Z,0.80
2023-04-03T14:45:12.943Z,0.65
2023-04-03T14:47:55.729Z,0.70
2023-04-03T14:50:25.742Z,1.15
2023-04-03T14:52:55.006Z,0.60
2023-04-03T14:55:23.796Z,0.40
2023-04-03T14:57:50.738Z,0.40
2023-04-03T15:00:21.000Z,0.50
2023-04-03T15:02:48.806Z,0.68
2023-04-03T15:05:16.544Z,0.50
2023-04-03T15:07:55.695Z,1.38
2023-04-03T15:10:30.557Z,1.00
2023-04-03T15:12:57.781Z,0.80
2023-04-03T15:15:25.580Z,0.90
2023-04-03T15:17:55.820Z,0.82
2023-04-03T15:20:25.666Z,0.77
2023-04-03T15:22:52.815Z,0.47
2023-04-03T15:25:19.701Z,0.60
2023-04-03T15:27:46.332Z,1.00
2023-04-03T15:30:17.404Z,0.85
2023-04-03T15:32:44.060Z,1.27
2023-04-03T15:35:10.884Z,1.00
2023-04-03T15:37:37.781Z,0.85
2023-04-03T15:40:06.339Z,0.75
2023-04-03T15:42:33.202Z,1.27
2023-04-03T15:44:59.879Z,1.20
2023-04-03T15:47:27.680Z,1.00
2023-04-03T15:49:55.918Z,1.08
2023-04-03T15:52:23.011Z,1.30
2023-04-03T15:54:49.832Z,1.35
2023-04-03T15:57:16.426Z,1.53
2023-04-03T15:59:43.029Z,1.13
2023-04-03T16:02:13.833Z,1.20
2023-04-03T16:04:41.152Z,1.13
2023-04-03T16:07:07.736Z,1.08
2023-04-03T16:09:35.338Z,0.60
2023-04-03T16:12:02.953Z,0.55
2023-04-03T16:14:31.180Z,0.70
2023-04-03T16:16:58.852Z,1.10
2023-04-03T16:19:26.384Z,0.82
2023-04-03T16:21:55.006Z,1.63
2023-04-03T16:24:21.978Z,0.98
2023-04-03T16:26:48.668Z,1.92
2023-04-03T16:29:15.234Z,2.05
2023-04-03T16:31:42.123Z,1.15
2023-04-03T16:34:08.849Z,0.90
2023-04-03T16:36:35.587Z,0.90
2023-04-03T16:39:02.343Z,1.42
2023-04-03T16:41:29.013Z,0.75
2023-04-03T16:43:55.674Z,1.48
2023-04-03T16:46:22.298Z,1.80
2023-04-03T16:48:48.939Z,0.75
2023-04-03T16:51:15.568Z,1.00
2023-04-03T16:53:42.826Z,0.90
2023-04-03T16:56:09.435Z,1.40
2023-04-03T16:58:36.213Z,1.20
2023-04-03T17:01:19.742Z,0.70
2023-04-03T17:03:46.564Z,0.57
2023-04-03T17:06:17.776Z,0.60
2023-04-03T17:08:46.397Z,1.20
2023-04-03T17:11:13.373Z,1.23
2023-04-03T17:13:40.056Z,0.80
2023-04-03T17:16:09.598Z,0.50
2023-04-03T17:18:36.697Z,0.50
2023-04-03T17:21:04.398Z,0.70
2023-04-03T17:23:31.449Z,0.70
2023-04-03T17:25:58.114Z,0.65
2023-04-03T17:28:28.548Z,0.50
2023-04-03T17:30:59.702Z,0.75
2023-04-03T17:33:28.284Z,0.70
2023-04-03T17:35:58.746Z,0.60
2023-04-03T17:38:26.413Z,0.57
2023-04-03T17:40:57.288Z,0.65
2023-04-03T17:43:23.999Z,0.45
2023-04-03T17:45:50.746Z,0.93
2023-04-03T17:48:17.344Z,0.63
2023-04-03T17:50:43.870Z,0.45
2023-04-03T17:53:10.954Z,0.60
2023-04-03T17:55:39.656Z,0.73
2023-04-03T17:58:06.502Z,0.70
2023-04-03T18:00:33.031Z,1.10
2023-04-03T18:02:59.577Z,1.80
2023-04-03T18:05:29.473Z,2.70
2023-04-03T18:07:57.472Z,1.70
2023-04-03T18:10:24.926Z,1.20
2023-04-03T18:12:53.132Z,1.10
2023-04-03T18:15:19.955Z,0.82
2023-04-03T18:17:47.133Z,0.70
2023-04-03T18:20:15.171Z,0.73
2023-04-03T18:22:42.074Z,0.40
2023-04-03T18:25:11.461Z,0.83
2023-04-03T18:27:38.446Z,0.60
2023-04-03T18:30:13.857Z,0.70
2023-04-03T18:32:41.129Z,0.45
2023-04-03T18:35:09.251Z,0.50
2023-04-03T18:37:35.914Z,0.57
2023-04-03T18:40:02.617Z,0.90
2023-04-03T18:42:29.145Z,1.17
2023-04-03T18:45:01.193Z,0.70
2023-04-03T18:47:28.824Z,0.60
2023-04-03T18:49:56.036Z,0.70
2023-04-03T18:52:25.158Z,0.50
2023-04-03T18:54:51.926Z,0.95
2023-04-03T18:57:18.671Z,0.50
2023-04-03T18:59:45.425Z,0.50
2023-04-03T19:02:13.360Z,0.40
2023-04-03T19:04:40.403Z,0.60
2023-04-03T19:07:08.960Z,0.52
2023-04-03T19:09:38.438Z,0.47
2023-04-03T19:12:05.902Z,0.40
2023-04-03T19:14:32.718Z,0.70
2023-04-03T19:16:59.468Z,0.50
2023-04-03T19:19:26.333Z,0.40
2023-04-03T19:21:52.831Z,0.50
2023-04-03T19:24:19.359Z,0.60
2023-04-03T19:26:46.019Z,0.50
2023-04-03T19:29:12.661Z,0.60
2023-04-03T19:31:40.175Z,0.60
2023-04-03T19:34:07.590Z,0.80
2023-04-03T19:36:35.923Z,0.77
2023-04-03T19:39:03.344Z,0.70
2023-04-03T19:41:31.535Z,0.50
2023-04-03T19:43:58.250Z,0.77
2023-04-03T19:46:27.024Z,0.80
2023-04-03T19:48:54.066Z,0.70
2023-04-03T19:51:20.592Z,1.10
2023-04-03T19:53:48.497Z,0.90
2023-04-03T19:56:18.358Z,0.85
2023-04-03T19:58:45.449Z,0.80
2023-04-03T20:01:12.298Z,0.75
2023-04-03T20:03:39.662Z,0.77
2023-04-03T20:06:06.377Z,0.90
2023-04-03T20:08:32.945Z,2.17
2023-04-03T20:10:59.498Z,2.15
2023-04-03T20:13:26.296Z,1.08
2023-04-03T20:15:53.483Z,0.90
2023-04-03T20:18:20.824Z,0.80
2023-04-03T20:20:58.653Z,0.63
2023-04-03T20:23:26.103Z,0.70
2023-04-03T20:26:08.741Z,0.60
2023-04-03T20:28:37.820Z,0.70
2023-04-03T20:31:04.667Z,0.70
2023-04-03T20:33:31.378Z,0.70
2023-04-03T20:35:58.204Z,0.60
2023-04-03T20:38:25.499Z,0.75
2023-04-03T20:40:52.414Z,0.70
2023-04-03T20:43:19.508Z,1.05
2023-04-03T20:45:47.222Z,1.13
2023-04-03T20:48:14.931Z,0.90
2023-04-03T20:50:42.595Z,1.10
2023-04-03T20:53:09.469Z,1.27
2023-04-03T20:55:36.228Z,1.08
2023-04-03T20:58:03.492Z,1.30
2023-04-03T21:00:33.925Z,1.02
2023-04-03T21:03:01.283Z,1.35
2023-04-03T21:05:30.118Z,1.00
2023-04-03T21:08:35.682Z,0.90
2023-04-03T21:11:40.469Z,0.77
2023-04-03T21:14:46.625Z,0.70
2023-04-03T21:17:13.289Z,0.80
2023-04-03T21:19:46.393Z,0.77
2023-04-03T21:22:13.794Z,0.80
2023-04-03T21:24:40.530Z,0.60
2023-04-03T21:27:07.958Z,0.75
2023-04-03T21:29:34.587Z,0.45
2023-04-03T21:32:01.755Z,0.40
2023-04-03T21:34:29.996Z,0.57
2023-04-03T21:37:07.837Z,0.75
2023-04-03T21:39:34.588Z,0.70
2023-04-03T21:42:01.728Z,0.60
2023-04-03T21:44:28.633Z,0.60
2023-04-03T21:46:55.634Z,0.60
2023-04-03T21:49:23.487Z,0.73
2023-04-03T21:51:51.605Z,0.75
2023-04-03T21:54:19.392Z,0.75
2023-04-03T21:56:48.267Z,0.70
2023-04-03T21:59:15.822Z,0.65
2023-04-03T22:01:42.830Z,0.90
2023-04-03T22:04:09.360Z,1.00
2023-04-03T22:06:37.275Z,0.80
2023-04-03T22:09:04.431Z,0.80
2023-04-03T22:11:31.185Z,0.93
2023-04-03T22:13:57.922Z,0.80
2023-04-03T22:16:24.645Z,0.75
2023-04-03T22:18:54.827Z,0.75
2023-04-03T22:21:21.968Z,0.77
2023-04-03T22:23:48.499Z,0.85
2023-04-03T22:26:15.555Z,0.70
2023-04-03T22:28:46.703Z,0.63
2023-04-03T22:31:14.879Z,0.80
2023-04-03T22:33:43.082Z,1.00
2023-04-03T22:36:11.175Z,0.60
2023-04-03T22:38:39.066Z,0.47
2023-04-03T22:41:07.070Z,0.70
2023-04-03T22:43:36.175Z,0.60
2023-04-03T22:46:04.737Z,0.70
2023-04-03T22:48:31.754Z,0.80
2023-04-03T22:51:00.006Z,0.88
2023-04-03T22:53:27.218Z,0.88
2023-04-03T22:56:05.009Z,0.70
2023-04-03T22:58:31.695Z,0.70
2023-04-03T23:01:12.535Z,0.70
2023-04-03T23:03:41.186Z,0.80
2023-04-03T23:06:09.350Z,0.50
2023-04-03T23:08:40.514Z,0.40
2023-04-03T23:11:07.628Z,0.47
2023-04-03T23:13:34.222Z,0.60
2023-04-03T23:16:02.395Z,0.60
2023-04-03T23:18:30.206Z,0.80
2023-04-03T23:20:58.645Z,0.65
2023-04-03T23:23:25.662Z,0.80
2023-04-03T23:25:59.380Z,0.60
2023-04-03T23:28:27.102Z,0.80
2023-04-03T23:31:05.446Z,0.80
2023-04-03T23:33:32.974Z,0.55
2023-04-03T23:36:05.531Z,0.70
2023-04-03T23:38:32.127Z,0.65
2023-04-03T23:40:58.725Z,0.65
2023-04-03T23:43:25.473Z,0.75
2023-04-03T23:45:52.481Z,0.60
2023-04-03T23:48:19.188Z,0.80
2023-04-03T23:50:45.812Z,0.90
2023-04-03T23:53:13.468Z,0.68
2023-04-03T23:55:40.744Z,1.15
2023-04-03T23:58:07.537Z,0.73
